Terminal Aerodrome Forecast
Issued by NWS

Home | Current Version | Previous Version | Text Only | Print | Product List | Glossary Off
Versions: 1 2 3 4 5 6 7 8 9 10 11 12 13 14

343
FTUS43 KMPX 201729
TAFRNH
TAF
KRNH 201729Z 2018/2118 32008KT P6SM SCT050 SCT200
     FM210100 33004KT P6SM FEW250
     FM211400 16007KT P6SM SCT110 BKN200=

USA.gov is the U.S. government's official web portal to all federal, state and local government web resources and services.